createdAt,value
2019-03-25T00:01:35.808Z,95064.30
2019-03-25T00:04:04.519Z,95068.52
2019-03-25T00:06:32.978Z,95054.13
2019-03-25T00:09:05.224Z,95041.45
2019-03-25T00:11:31.908Z,95041.45
2019-03-25T00:14:00.520Z,95040.17
2019-03-25T00:16:29.171Z,95044.41
2019-03-25T00:18:57.807Z,95042.73
2019-03-25T00:21:26.361Z,95033.39
2019-03-25T00:23:54.854Z,95016.08
2019-03-25T00:26:23.401Z,95010.98
2019-03-25T00:28:54.598Z,95008.03
2019-03-25T00:31:23.205Z,94998.32
2019-03-25T00:33:51.872Z,94996.19
2019-03-25T00:36:20.402Z,94997.05
2019-03-25T00:38:48.939Z,95007.62
2019-03-25T00:41:17.577Z,95016.50
2019-03-25T00:43:46.192Z,95018.19
2019-03-25T00:46:14.771Z,95010.99
2019-03-25T00:48:43.374Z,95010.57
2019-03-25T00:51:11.978Z,95014.82
2019-03-25T00:53:40.583Z,95013.11
2019-03-25T00:56:09.180Z,95003.38
2019-03-25T00:58:37.786Z,94982.23
2019-03-25T01:01:06.414Z,94983.50
2019-03-25T01:03:35.024Z,94972.94
2019-03-25T01:06:03.667Z,94969.55
2019-03-25T01:08:32.230Z,94970.37
2019-03-25T01:11:00.839Z,94968.70
2019-03-25T01:13:29.441Z,94971.23
2019-03-25T01:15:57.978Z,94976.73
2019-03-25T01:18:28.374Z,94975.05
2019-03-25T01:20:56.986Z,94964.90
2019-03-25T01:23:25.523Z,94967.02
2019-03-25T01:25:54.105Z,94962.35
2019-03-25T01:28:22.669Z,94953.46
2019-03-25T01:30:51.198Z,94949.23
2019-03-25T01:33:19.806Z,94953.89
2019-03-25T01:35:48.454Z,94960.22
2019-03-25T01:38:17.059Z,94955.59
2019-03-25T01:40:45.527Z,94949.25
2019-03-25T01:43:13.993Z,94948.81
2019-03-25T01:45:42.620Z,94951.77
2019-03-25T01:48:11.141Z,94950.07
2019-03-25T01:50:39.687Z,94941.63
2019-03-25T01:53:08.219Z,94933.16
2019-03-25T01:55:36.820Z,94932.72
2019-03-25T01:58:05.429Z,94933.14
2019-03-25T02:00:34.152Z,94927.20
2019-03-25T02:03:02.789Z,94925.52
2019-03-25T02:05:31.463Z,94935.65
2019-03-25T02:08:00.127Z,94942.84
2019-03-25T02:10:28.815Z,94935.64
2019-03-25T02:12:57.380Z,94930.55
2019-03-25T02:15:25.905Z,94925.08
2019-03-25T02:17:54.533Z,94919.17
2019-03-25T02:20:26.757Z,94920.02
2019-03-25T02:22:53.662Z,94909.87
2019-03-25T02:25:25.536Z,94919.60
2019-03-25T02:27:52.855Z,94913.23
2019-03-25T02:30:21.464Z,94911.97
2019-03-25T02:32:50.008Z,94921.28
2019-03-25T02:35:18.576Z,94915.79
2019-03-25T02:37:47.147Z,94911.15
2019-03-25T02:40:15.653Z,94906.48
2019-03-25T02:42:44.145Z,94918.33
2019-03-25T02:45:12.880Z,94910.28
2019-03-25T02:47:41.432Z,94914.95
2019-03-25T02:50:10.252Z,94913.66
2019-03-25T02:52:38.835Z,94914.09
2019-03-25T02:55:08.358Z,94910.69
2019-03-25T02:57:36.995Z,94908.57
2019-03-25T03:00:07.725Z,94900.13
2019-03-25T03:02:36.255Z,94891.67
2019-03-25T03:05:07.484Z,94884.08
2019-03-25T03:07:36.151Z,94874.78
2019-03-25T03:10:06.725Z,94873.94
2019-03-25T03:12:35.732Z,94863.80
2019-03-25T03:15:06.207Z,94867.63
2019-03-25T03:17:34.909Z,94863.81
2019-03-25T03:20:07.279Z,94865.94
2019-03-25T03:22:35.828Z,94868.89
2019-03-25T03:25:04.636Z,94866.37
2019-03-25T03:27:33.245Z,94859.59
2019-03-25T03:30:01.820Z,94859.59
2019-03-25T03:32:30.413Z,94865.09
2019-03-25T03:34:58.976Z,94861.30
2019-03-25T03:37:27.494Z,94860.02
2019-03-25T03:39:56.166Z,94858.34
2019-03-25T03:42:24.858Z,94850.73
2019-03-25T03:44:53.332Z,94857.08
2019-03-25T03:47:21.926Z,94857.48
2019-03-25T03:49:51.606Z,94855.39
2019-03-25T03:52:20.841Z,94856.66
2019-03-25T03:54:50.422Z,94856.23
2019-03-25T03:57:19.038Z,94866.35
2019-03-25T03:59:47.637Z,94867.20
2019-03-25T04:02:18.476Z,94871.44
2019-03-25T04:04:47.008Z,94868.06
2019-03-25T04:07:15.598Z,94871.86
2019-03-25T04:09:44.132Z,94868.05
2019-03-25T04:12:12.746Z,94870.19
2019-03-25T04:14:41.346Z,94863.00
2019-03-25T04:17:09.979Z,94861.73
2019-03-25T04:19:38.462Z,94860.03
2019-03-25T04:22:07.109Z,94857.91
2019-03-25T04:24:35.733Z,94866.78
2019-03-25T04:27:04.351Z,94860.02
2019-03-25T04:29:32.977Z,94857.09
2019-03-25T04:32:01.545Z,94860.03
2019-03-25T04:34:30.122Z,94856.23
2019-03-25T04:36:58.728Z,94858.75
2019-03-25T04:39:27.291Z,94859.17
2019-03-25T04:41:55.830Z,94860.44
2019-03-25T04:44:24.407Z,94857.06
2019-03-25T04:46:52.966Z,94862.98
2019-03-25T04:49:21.443Z,94865.52
2019-03-25T04:51:50.013Z,94853.70
2019-03-25T04:54:18.613Z,94853.28
2019-03-25T04:56:47.168Z,94852.41
2019-03-25T04:59:15.791Z,94857.08
2019-03-25T05:01:44.347Z,94858.76
2019-03-25T05:04:12.969Z,94859.59
2019-03-25T05:06:41.532Z,94855.38
2019-03-25T05:09:10.055Z,94851.59
2019-03-25T05:11:38.645Z,94849.88
2019-03-25T05:14:07.186Z,94845.25
2019-03-25T05:16:35.659Z,94842.71
2019-03-25T05:19:04.243Z,94834.67
2019-03-25T05:21:32.914Z,94834.66
2019-03-25T05:24:01.479Z,94826.23
2019-03-25T05:26:30.066Z,94827.08
2019-03-25T05:28:58.659Z,94822.02
2019-03-25T05:31:27.266Z,94822.84
2019-03-25T05:33:55.849Z,94820.72
2019-03-25T05:36:24.537Z,94819.88
2019-03-25T05:38:52.999Z,94821.13
2019-03-25T05:41:21.537Z,94822.41
2019-03-25T05:43:50.157Z,94825.36
2019-03-25T05:46:18.717Z,94824.53
2019-03-25T05:48:47.259Z,94819.44
2019-03-25T05:51:15.891Z,94815.20
2019-03-25T05:53:44.360Z,94815.20
2019-03-25T05:56:12.916Z,94815.19
2019-03-25T05:58:41.560Z,94808.86
2019-03-25T06:01:12.049Z,94809.28
2019-03-25T06:03:42.428Z,94809.69
2019-03-25T06:06:10.961Z,94805.89
2019-03-25T06:08:39.430Z,94802.91
2019-03-25T06:11:07.963Z,94805.03
2019-03-25T06:13:41.041Z,94807.16
2019-03-25T06:16:09.646Z,94804.64
2019-03-25T06:18:38.272Z,94797.86
2019-03-25T06:21:06.749Z,94802.96
2019-03-25T06:23:35.275Z,94806.33
2019-03-25T06:26:03.880Z,94811.41
2019-03-25T06:28:32.497Z,94799.16
2019-03-25T06:31:04.166Z,94801.27
2019-03-25T06:33:32.700Z,94801.70
2019-03-25T06:36:01.209Z,94807.20
2019-03-25T06:38:31.117Z,94809.30
2019-03-25T06:40:59.576Z,94803.78
2019-03-25T06:43:28.107Z,94803.36
2019-03-25T06:45:56.645Z,94798.30
2019-03-25T06:48:25.185Z,94795.31
2019-03-25T06:50:55.569Z,94792.77
2019-03-25T06:53:24.028Z,94799.95
2019-03-25T06:55:52.631Z,94804.17
2019-03-25T06:58:21.163Z,94801.20
2019-03-25T07:00:49.768Z,94805.42
2019-03-25T07:03:18.371Z,94799.49
2019-03-25T07:05:46.986Z,94799.50
2019-03-25T07:08:15.442Z,94796.53
2019-03-25T07:10:44.010Z,94795.66
2019-03-25T07:13:12.607Z,94791.86
2019-03-25T07:15:41.242Z,94793.53
2019-03-25T07:18:09.703Z,94797.35
2019-03-25T07:20:38.306Z,94796.08
2019-03-25T07:23:06.915Z,94801.55
2019-03-25T07:25:35.486Z,94803.63
2019-03-25T07:28:04.061Z,94793.03
2019-03-25T07:30:32.670Z,94788.34
2019-03-25T07:33:01.366Z,94786.59
2019-03-25T07:35:29.983Z,94778.52
2019-03-25T07:37:58.494Z,94771.70
2019-03-25T07:40:27.138Z,94779.30
2019-03-25T07:42:55.678Z,94780.55
2019-03-25T07:45:26.515Z,94773.73
2019-03-25T07:47:55.131Z,94767.80
2019-03-25T07:50:27.915Z,94768.24
2019-03-25T07:52:56.595Z,94772.42
2019-03-25T07:55:25.147Z,94771.99
2019-03-25T07:57:53.752Z,94771.95
2019-03-25T08:00:22.763Z,94774.03
2019-03-25T08:02:51.412Z,94776.97
2019-03-25T08:05:20.029Z,94782.86
2019-03-25T08:07:48.574Z,94778.64
2019-03-25T08:10:20.110Z,94781.16
2019-03-25T08:12:48.633Z,94774.43
2019-03-25T08:15:17.169Z,94776.97
2019-03-25T08:17:45.689Z,94775.33
2019-03-25T08:20:15.808Z,94777.01
2019-03-25T08:22:44.339Z,94772.39
2019-03-25T08:25:13.146Z,94768.61
2019-03-25T08:27:41.684Z,94772.02
2019-03-25T08:30:11.512Z,94773.30
2019-03-25T08:32:41.491Z,94775.46
2019-03-25T08:35:14.509Z,94778.90
2019-03-25T08:37:40.780Z,94782.70
2019-03-25T08:40:10.250Z,94777.19
2019-03-25T08:42:38.857Z,94772.55
2019-03-25T08:45:08.158Z,94777.22
2019-03-25T08:47:36.699Z,94776.81
2019-03-25T08:50:09.045Z,94784.10
2019-03-25T08:52:37.661Z,94778.19
2019-03-25T08:55:07.413Z,94785.77
2019-03-25T08:57:36.014Z,94783.72
2019-03-25T09:00:07.323Z,94786.25
2019-03-25T09:02:35.926Z,94788.34
2019-03-25T09:05:06.569Z,94790.88
2019-03-25T09:07:35.180Z,94792.17
2019-03-25T09:10:07.925Z,94790.52
2019-03-25T09:12:36.563Z,94796.42
2019-03-25T09:15:09.629Z,94803.66
2019-03-25T09:17:38.379Z,94799.43
2019-03-25T09:20:10.966Z,94798.19
2019-03-25T09:22:39.496Z,94802.41
2019-03-25T09:25:11.726Z,94801.56
2019-03-25T09:27:40.259Z,94801.14
2019-03-25T09:30:11.735Z,94803.68
2019-03-25T09:32:40.379Z,94804.92
2019-03-25T09:35:10.132Z,94803.25
2019-03-25T09:37:39.255Z,94809.16
2019-03-25T09:40:09.339Z,94804.51
2019-03-25T09:42:37.943Z,94801.59
2019-03-25T09:45:08.581Z,94799.94
2019-03-25T09:47:37.907Z,94798.62
2019-03-25T09:50:08.053Z,94797.32
2019-03-25T09:52:38.810Z,94796.06
2019-03-25T09:55:08.392Z,94793.47
2019-03-25T09:57:37.069Z,94786.59
2019-03-25T10:00:12.380Z,94769.98
2019-03-25T10:02:41.017Z,94764.63
2019-03-25T10:05:10.226Z,94761.92
2019-03-25T10:07:38.870Z,94752.94
2019-03-25T10:10:11.572Z,94750.26
2019-03-25T10:12:40.112Z,94753.68
2019-03-25T10:15:09.542Z,94751.14
2019-03-25T10:17:38.146Z,94745.21
2019-03-25T10:20:12.550Z,94741.36
2019-03-25T10:22:41.149Z,94739.59
2019-03-25T10:25:10.849Z,94727.55
2019-03-25T10:27:39.667Z,94719.52
2019-03-25T10:30:13.438Z,94715.60
2019-03-25T10:32:42.034Z,94707.81
2019-03-25T10:35:11.345Z,94697.82
2019-03-25T10:37:39.952Z,94709.72
2019-03-25T10:40:10.606Z,94700.88
2019-03-25T10:42:39.208Z,94699.21
2019-03-25T10:45:08.754Z,94699.22
2019-03-25T10:47:37.305Z,94697.98
2019-03-25T10:50:07.446Z,94699.72
2019-03-25T10:52:35.985Z,94695.08
2019-03-25T10:55:07.810Z,94690.88
2019-03-25T10:57:36.420Z,94692.59
2019-03-25T11:00:11.255Z,94684.06
2019-03-25T11:02:39.860Z,94685.66
2019-03-25T11:05:10.035Z,94677.00
2019-03-25T11:07:38.753Z,94676.37
2019-03-25T11:10:08.625Z,94685.22
2019-03-25T11:12:37.227Z,94695.42
2019-03-25T11:15:08.105Z,94696.75
2019-03-25T11:17:36.785Z,94695.59
2019-03-25T11:20:09.503Z,94695.33
2019-03-25T11:22:38.114Z,94686.94
2019-03-25T11:25:07.754Z,94687.94
2019-03-25T11:27:36.205Z,94686.34
2019-03-25T11:30:07.577Z,94686.01
2019-03-25T11:32:36.179Z,94681.02
2019-03-25T11:35:07.190Z,94684.45
2019-03-25T11:37:36.180Z,94683.13
2019-03-25T11:40:09.716Z,94680.97
2019-03-25T11:42:38.393Z,94670.28
2019-03-25T11:45:09.201Z,94665.95
2019-03-25T11:47:37.982Z,94647.59
2019-03-25T11:50:08.143Z,94637.22
2019-03-25T11:52:36.747Z,94626.45
2019-03-25T11:55:07.134Z,94623.72
2019-03-25T11:57:35.766Z,94614.06
2019-03-25T12:00:07.665Z,94602.53
2019-03-25T12:02:36.271Z,94589.44
2019-03-25T12:05:07.084Z,94594.35
2019-03-25T12:07:35.648Z,94596.52
2019-03-25T12:10:07.998Z,94593.87
2019-03-25T12:12:36.621Z,94591.15
2019-03-25T12:15:11.206Z,94588.57
2019-03-25T12:17:39.813Z,94589.63
2019-03-25T12:20:09.357Z,94580.95
2019-03-25T12:22:37.883Z,94576.98
2019-03-25T12:25:09.399Z,94570.62
2019-03-25T12:27:39.981Z,94569.38
2019-03-25T12:30:10.413Z,94557.73
2019-03-25T12:32:38.950Z,94563.53
2019-03-25T12:35:08.449Z,94558.00
2019-03-25T12:37:37.061Z,94566.66
2019-03-25T12:40:07.858Z,94561.22
2019-03-25T12:42:36.448Z,94557.38
2019-03-25T12:45:07.157Z,94560.52
2019-03-25T12:47:35.803Z,94567.75
2019-03-25T12:50:06.327Z,94565.37
2019-03-25T12:52:34.937Z,94569.45
2019-03-25T12:55:04.051Z,94567.95
2019-03-25T12:57:34.931Z,94558.33
2019-03-25T13:00:05.110Z,94554.95
2019-03-25T13:02:33.663Z,94553.30
2019-03-25T13:05:02.200Z,94555.85
2019-03-25T13:07:30.866Z,94555.03
2019-03-25T13:09:59.420Z,94551.67
2019-03-25T13:12:27.943Z,94564.52
2019-03-25T13:14:56.534Z,94564.16
2019-03-25T13:17:25.070Z,94560.42
2019-03-25T13:19:53.631Z,94558.00
2019-03-25T13:22:22.184Z,94551.65
2019-03-25T13:24:50.773Z,94548.27
2019-03-25T13:27:19.365Z,94547.84
2019-03-25T13:29:52.639Z,94544.08
2019-03-25T13:32:18.282Z,94550.38
2019-03-25T13:34:46.846Z,94553.39
2019-03-25T13:37:15.452Z,94545.83
2019-03-25T13:39:44.017Z,94543.98
2019-03-25T13:42:12.486Z,94550.58
2019-03-25T13:44:40.952Z,94551.37
2019-03-25T13:47:09.519Z,94558.06
2019-03-25T13:49:38.118Z,94561.88
2019-03-25T13:52:06.758Z,94566.87
2019-03-25T13:54:35.292Z,94564.93
2019-03-25T13:57:04.033Z,94565.45
2019-03-25T13:59:32.496Z,94567.24
2019-03-25T14:02:01.089Z,94576.23
2019-03-25T14:04:29.749Z,94585.32
2019-03-25T14:06:58.282Z,94592.75
2019-03-25T14:09:26.922Z,94580.66
2019-03-25T14:11:55.386Z,94590.63
2019-03-25T14:14:23.860Z,94584.82
2019-03-25T14:16:52.407Z,94586.92
2019-03-25T14:19:20.979Z,94588.19
2019-03-25T14:21:49.652Z,94579.23
2019-03-25T14:24:18.199Z,94577.05
2019-03-25T14:26:46.833Z,94578.33
2019-03-25T14:29:15.366Z,94582.52
2019-03-25T14:31:43.845Z,94580.81
2019-03-25T14:34:14.505Z,94586.05
2019-03-25T14:36:42.799Z,94586.23
2019-03-25T14:39:11.346Z,94585.47
2019-03-25T14:41:39.884Z,94588.02
2019-03-25T14:44:08.490Z,94588.96
2019-03-25T14:46:37.097Z,94587.38
2019-03-25T14:49:05.636Z,94586.58
2019-03-25T14:51:34.230Z,94588.25
2019-03-25T14:54:02.872Z,94591.67
2019-03-25T14:56:31.434Z,94598.09
2019-03-25T14:59:00.006Z,94606.22
2019-03-25T15:01:28.619Z,94610.48
2019-03-25T15:03:57.202Z,94606.33
2019-03-25T15:06:25.870Z,94617.35
2019-03-25T15:08:54.422Z,94626.34
2019-03-25T15:11:23.033Z,94624.62
2019-03-25T15:13:51.636Z,94623.31
2019-03-25T15:16:20.254Z,94626.73
2019-03-25T15:18:48.782Z,94625.46
2019-03-25T15:21:17.351Z,94624.15
2019-03-25T15:23:45.898Z,94628.80
2019-03-25T15:26:14.458Z,94623.27
2019-03-25T15:28:43.372Z,94623.66
2019-03-25T15:31:11.906Z,94629.56
2019-03-25T15:33:40.469Z,94693.60
2019-03-25T15:36:09.073Z,94750.52
2019-03-25T15:38:37.699Z,94734.03
2019-03-25T15:41:06.294Z,94747.65
2019-03-25T15:43:34.796Z,94738.33
2019-03-25T15:46:03.672Z,94737.38
2019-03-25T15:48:35.358Z,94733.91
2019-03-25T15:51:03.976Z,94747.33
2019-03-25T15:53:32.416Z,94743.83
2019-03-25T15:56:00.976Z,94738.70
2019-03-25T15:58:29.536Z,94738.23
2019-03-25T16:01:00.414Z,94742.75
2019-03-25T16:03:29.018Z,94745.21
2019-03-25T16:05:57.592Z,94743.09
2019-03-25T16:08:26.278Z,94756.09
2019-03-25T16:10:54.989Z,94759.38
2019-03-25T16:13:23.666Z,94767.74
2019-03-25T16:15:52.397Z,94763.52
2019-03-25T16:18:32.463Z,94753.38
2019-03-25T16:21:01.257Z,94755.84
2019-03-25T16:23:31.585Z,94749.50
2019-03-25T16:26:00.201Z,94739.80
2019-03-25T16:28:28.819Z,94738.14
2019-03-25T16:30:59.093Z,94738.62
2019-03-25T16:33:27.940Z,94737.87
2019-03-25T16:35:57.573Z,94738.76
2019-03-25T16:38:26.263Z,94738.80
2019-03-25T16:40:54.870Z,94740.55
2019-03-25T16:43:23.559Z,94737.27
2019-03-25T16:45:52.167Z,94720.88
2019-03-25T16:48:21.172Z,94720.09
2019-03-25T16:50:51.294Z,94727.25
2019-03-25T16:53:20.184Z,94726.42
2019-03-25T16:55:48.712Z,94727.70
2019-03-25T16:58:17.309Z,94728.57
2019-03-25T17:00:45.987Z,94732.40
2019-03-25T17:03:14.590Z,94737.03
2019-03-25T17:05:43.160Z,94735.36
2019-03-25T17:08:11.757Z,94742.98
2019-03-25T17:10:40.294Z,94749.72
2019-03-25T17:13:08.903Z,94751.41
2019-03-25T17:15:37.580Z,94746.35
2019-03-25T17:18:06.201Z,94759.41
2019-03-25T17:20:34.719Z,94760.69
2019-03-25T17:23:03.182Z,94770.81
2019-03-25T17:25:31.792Z,94771.61
2019-03-25T17:28:00.266Z,94774.58
2019-03-25T17:30:28.882Z,94774.94
2019-03-25T17:32:57.575Z,94783.38
2019-03-25T17:35:26.040Z,94785.45
2019-03-25T17:37:54.643Z,94787.08
2019-03-25T17:40:23.423Z,94789.17
2019-03-25T17:42:52.017Z,94795.47
2019-03-25T17:45:21.626Z,94792.55
2019-03-25T17:47:50.100Z,94785.81
2019-03-25T17:50:18.911Z,94782.84
2019-03-25T17:52:47.433Z,94794.62
2019-03-25T17:55:17.084Z,94800.89
2019-03-25T17:57:45.696Z,94801.29
2019-03-25T18:00:14.779Z,94802.56
2019-03-25T18:02:43.415Z,94801.70
2019-03-25T18:05:12.234Z,94796.20
2019-03-25T18:07:40.768Z,94805.86
2019-03-25T18:10:09.738Z,94809.64
2019-03-25T18:12:39.341Z,94805.88
2019-03-25T18:15:10.444Z,94810.87
2019-03-25T18:17:39.088Z,94807.50
2019-03-25T18:20:18.066Z,94822.98
2019-03-25T18:22:40.074Z,94838.94
2019-03-25T18:25:09.102Z,94850.21
2019-03-25T18:27:37.658Z,94864.50
2019-03-25T18:30:08.057Z,94859.34
2019-03-25T18:32:36.703Z,94854.67
2019-03-25T18:35:06.624Z,94867.64
2019-03-25T18:37:36.662Z,94859.54
2019-03-25T18:40:05.617Z,94867.09
2019-03-25T18:42:34.256Z,94868.32
2019-03-25T18:45:02.971Z,94888.53
2019-03-25T18:47:31.648Z,94896.52
2019-03-25T18:50:00.412Z,94890.66
2019-03-25T18:52:29.338Z,94874.69
2019-03-25T18:54:58.166Z,94876.39
2019-03-25T18:57:26.770Z,94870.50
2019-03-25T18:59:55.409Z,94862.93
2019-03-25T19:02:24.041Z,94865.52
2019-03-25T19:04:52.573Z,94878.97
2019-03-25T19:07:21.181Z,94894.98
2019-03-25T19:09:51.642Z,94900.08
2019-03-25T19:12:20.112Z,94895.45
2019-03-25T19:14:48.659Z,94884.54
2019-03-25T19:17:17.157Z,94877.84
2019-03-25T19:19:45.750Z,94887.51
2019-03-25T19:22:14.359Z,94901.45
2019-03-25T19:24:42.989Z,94909.05
2019-03-25T19:27:11.614Z,94900.23
2019-03-25T19:29:40.075Z,94903.63
2019-03-25T19:32:08.673Z,94907.83
2019-03-25T19:34:37.387Z,94903.23
2019-03-25T19:37:06.043Z,94901.99
2019-03-25T19:39:34.774Z,94916.33
2019-03-25T19:42:03.431Z,94930.23
2019-03-25T19:44:32.045Z,94931.53
2019-03-25T19:47:00.632Z,94926.92
2019-03-25T19:49:29.262Z,94929.02
2019-03-25T19:51:57.920Z,94926.50
2019-03-25T19:54:26.504Z,94920.61
2019-03-25T19:56:55.104Z,94918.53
2019-03-25T19:59:23.679Z,94934.10
2019-03-25T20:01:52.364Z,94944.20
2019-03-25T20:04:20.860Z,94947.56
2019-03-25T20:06:49.535Z,94947.57
2019-03-25T20:09:18.030Z,94958.09
2019-03-25T20:11:46.712Z,94961.88
2019-03-25T20:14:15.270Z,94968.66
2019-03-25T20:16:43.896Z,94960.67
2019-03-25T20:19:12.430Z,94953.55
2019-03-25T20:21:40.998Z,94947.23
2019-03-25T20:24:09.656Z,94952.22
2019-03-25T20:26:38.306Z,94959.41
2019-03-25T20:29:06.841Z,94975.01
2019-03-25T20:31:36.983Z,94996.48
2019-03-25T20:34:11.300Z,94982.97
2019-03-25T20:36:36.159Z,94986.77
2019-03-25T20:39:07.672Z,94964.75
2019-03-25T20:41:36.407Z,94986.77
2019-03-25T20:44:08.294Z,94985.05
2019-03-25T20:46:36.958Z,94987.64
2019-03-25T20:49:05.696Z,94999.34
2019-03-25T20:51:34.287Z,95000.21
2019-03-25T20:54:03.060Z,95005.26
2019-03-25T20:56:31.610Z,95006.07
2019-03-25T20:59:00.306Z,95016.63
2019-03-25T21:01:28.929Z,95013.26
2019-03-25T21:03:57.677Z,95021.25
2019-03-25T21:06:26.323Z,95017.02
2019-03-25T21:08:55.018Z,95030.52
2019-03-25T21:11:23.714Z,95036.83
2019-03-25T21:13:52.255Z,95031.78
2019-03-25T21:16:21.006Z,95043.14
2019-03-25T21:18:52.179Z,95043.53
2019-03-25T21:21:19.840Z,95053.97
2019-03-25T21:23:48.300Z,95061.09
2019-03-25T21:26:17.011Z,95059.83
2019-03-25T21:28:45.664Z,95068.67
2019-03-25T21:31:14.351Z,95068.64
2019-03-25T21:33:42.963Z,95071.97
2019-03-25T21:36:11.689Z,95066.86
2019-03-25T21:38:40.624Z,95060.97
2019-03-25T21:41:09.312Z,95057.57
2019-03-25T21:43:37.918Z,95056.76
2019-03-25T21:46:06.536Z,95058.05
2019-03-25T21:48:35.148Z,95058.02
2019-03-25T21:51:03.798Z,95058.80
2019-03-25T21:53:32.316Z,95059.64
2019-03-25T21:56:00.805Z,95060.84
2019-03-25T21:58:29.492Z,95053.23
2019-03-25T22:00:58.236Z,95051.98
2019-03-25T22:03:26.839Z,95056.93
2019-03-25T22:05:55.422Z,95051.36
2019-03-25T22:08:24.023Z,95057.28
2019-03-25T22:10:52.626Z,95062.30
2019-03-25T22:13:21.249Z,95058.86
2019-03-25T22:15:55.329Z,95061.81
2019-03-25T22:18:23.897Z,95048.77
2019-03-25T22:20:52.465Z,95044.47
2019-03-25T22:23:21.124Z,95051.20
2019-03-25T22:25:49.847Z,95048.19
2019-03-25T22:28:18.562Z,95043.14
2019-03-25T22:30:47.315Z,95036.83
2019-03-25T22:33:25.596Z,95035.11
2019-03-25T22:35:46.427Z,95043.52
2019-03-25T22:38:15.142Z,95045.20
2019-03-25T22:40:43.761Z,95038.48
2019-03-25T22:43:12.231Z,95045.23
2019-03-25T22:45:40.839Z,95036.38
2019-03-25T22:48:09.441Z,95051.51
2019-03-25T22:50:38.108Z,95055.69
2019-03-25T22:53:06.710Z,95061.64
2019-03-25T22:55:35.182Z,95063.36
2019-03-25T22:58:03.823Z,95071.38
2019-03-25T23:00:34.117Z,95066.37
2019-03-25T23:03:02.825Z,95074.78
2019-03-25T23:05:35.607Z,95084.45
2019-03-25T23:08:01.758Z,95088.23
2019-03-25T23:10:30.303Z,95084.09
2019-03-25T23:12:58.936Z,95076.95
2019-03-25T23:15:27.540Z,95079.09
2019-03-25T23:17:57.318Z,95078.67
2019-03-25T23:20:25.974Z,95076.56
2019-03-25T23:22:54.511Z,95088.31
2019-03-25T23:25:23.140Z,95095.03
2019-03-25T23:27:51.864Z,95104.70
2019-03-25T23:30:20.445Z,95104.32
2019-03-25T23:32:49.065Z,95100.12
2019-03-25T23:35:17.772Z,95101.83
2019-03-25T23:37:46.230Z,95106.04
2019-03-25T23:40:14.792Z,95106.53
2019-03-25T23:42:43.504Z,95112.45
2019-03-25T23:45:12.111Z,95111.16
2019-03-25T23:47:41.914Z,95108.17
2019-03-25T23:50:10.436Z,95121.22
2019-03-25T23:52:39.039Z,95141.86
2019-03-25T23:55:07.756Z,95148.24
2019-03-25T23:57:36.372Z,95150.31
